Main page
METAR-TAF:

METAR-TAF

Airports :

Naval Station Rota

Rota, Spain

latitude: 36-39N, longitude: 006-21W, elevation: 26 m

Current weather observation

The report was made 1 hour and 13 minutes ago, at 22:00 UTC
Wind 5 kt from the North/Northwest
Temperature 24°C
Humidity 83%
Pressure 1016 hPa
Visibility 10 km or more
no clouds below 1500 m and no cumulonimbus

METAR: LERT 052200Z 33005KT CAVOK 24/21 Q1016 NOSIG

Time: 01:13 (23:13 UTC)

Forecast

The report was made 3 hours and 13 minutes ago, at 20:00 UTC
Forecast valid from 05 at 21 UTC to 06 at 06 UTC
Wind 5 kt from the South/Southeast
Visibility 10 km or more
no clouds below 1500 m and no cumulonimbus

TAF: LERT 052000Z 0521/0606 15005KT CAVOK

Weather observations and forecasts of more than 4000 airports (METAR and TAF reports).

The available stations are represented by yellow and red dots on the map.

Hover mouse over dot to see the name of the station.

Then click to see weather observations and forecasts.

To change the map : click on the green buttons with a black cross to zoom in, on the green button with a dash to zoom out, or on the green arrows for adjacent maps.


METAR-TAF: